Time;durP1;ratioP1;P1;durP2;ratioP2;P2;SDS_P1;SDS_P2;PMS_P1;PMS_P2;Temp;Humidity;BMP_temperature;BMP_pressure;BME280_temperature;BME280_humidity;BME280_pressure;Samples;Min_cycle;Max_cycle;Signal;HPM_P1;HPM_P2
2023/05/19 00:01:51;;;;;;;8.75;4.20;;;13.40;58.80;;;;;;5071361;28;20024;-61
2023/05/19 00:04:17;;;;;;;9.75;3.55;;;13.40;58.90;;;;;;5072259;28;20020;-61
2023/05/19 00:06:45;;;;;;;9.63;4.22;;;13.40;59.00;;;;;;5072474;28;20036;-61
2023/05/19 00:09:11;;;;;;;9.77;4.20;;;13.30;59.00;;;;;;5059448;28;20020;-62
2023/05/19 00:11:38;;;;;;;7.35;3.72;;;13.30;59.10;;;;;;5064952;28;20032;-61
2023/05/19 00:14:06;;;;;;;8.38;3.63;;;13.30;59.20;;;;;;5068356;28;20029;-61
2023/05/19 00:16:33;;;;;;;9.18;3.55;;;13.30;59.30;;;;;;5068798;28;20472;-61
2023/05/19 00:19:00;;;;;;;9.48;3.97;;;13.30;59.30;;;;;;5071273;28;20123;-62
2023/05/19 00:21:27;;;;;;;7.75;3.40;;;13.20;59.40;;;;;;5063520;28;20035;-61
2023/05/19 00:23:53;;;;;;;10.60;4.30;;;13.20;59.40;;;;;;5059823;28;20051;-62
2023/05/19 00:26:20;;;;;;;10.98;4.28;;;13.20;59.60;;;;;;5070494;28;20137;-61
2023/05/19 00:28:54;;;;;;;10.60;3.75;;;13.20;59.70;;;;;;5067113;28;20025;-61
2023/05/19 00:31:20;;;;;;;9.20;3.80;;;13.20;59.80;;;;;;5070739;28;20032;-61
2023/05/19 00:33:46;;;;;;;11.43;4.00;;;13.20;60.00;;;;;;5061313;28;20029;-61
2023/05/19 00:36:12;;;;;;;8.30;3.75;;;13.10;60.10;;;;;;5072032;28;20491;-61
2023/05/19 00:38:38;;;;;;;10.65;4.05;;;13.10;60.20;;;;;;5069471;28;20370;-62
2023/05/19 00:41:05;;;;;;;8.93;3.90;;;13.10;60.40;;;;;;5073214;28;20441;-61
2023/05/19 00:43:33;;;;;;;9.52;3.70;;;13.00;60.40;;;;;;5068845;28;20463;-61
2023/05/19 00:45:59;;;;;;;8.35;4.18;;;13.00;60.50;;;;;;5072978;28;20106;-61
2023/05/19 00:48:26;;;;;;;9.20;4.18;;;13.00;60.70;;;;;;5075197;28;20130;-61
2023/05/19 00:51:03;;;;;;;9.25;4.25;;;13.00;60.80;;;;;;5071161;28;20021;-61
2023/05/19 00:53:30;;;;;;;11.50;4.00;;;12.90;60.90;;;;;;5074908;28;20037;-61
2023/05/19 00:55:57;;;;;;;9.40;3.60;;;12.90;60.90;;;;;;5073828;28;20033;-61
2023/05/19 00:58:28;;;;;;;9.05;3.75;;;12.90;61.10;;;;;;5074655;28;20111;-61
2023/05/19 01:01:01;;;;;;;9.35;3.97;;;12.90;61.30;;;;;;5073350;28;20027;-63
2023/05/19 01:03:29;;;;;;;9.93;3.97;;;12.90;61.40;;;;;;5070865;28;20048;-61
2023/05/19 01:05:55;;;;;;;10.57;3.90;;;12.90;61.50;;;;;;5073906;28;20020;-61
2023/05/19 01:08:21;;;;;;;9.02;3.70;;;12.80;61.50;;;;;;5074754;28;20111;-61
2023/05/19 01:10:47;;;;;;;9.05;3.75;;;12.80;61.60;;;;;;5072503;28;20109;-61
2023/05/19 01:13:13;;;;;;;10.93;4.10;;;12.80;61.70;;;;;;5072460;28;20178;-61
2023/05/19 01:16:16;;;;;;;10.45;5.07;;;12.80;61.80;;;;;;5075536;28;20122;-61
2023/05/19 01:19:20;;;;;;;10.43;3.88;;;12.80;62.00;;;;;;5071145;28;20032;-61
2023/05/19 01:22:11;;;;;;;10.65;4.00;;;12.70;62.00;;;;;;5066291;28;20041;-61
2023/05/19 01:25:16;;;;;;;9.13;3.38;;;12.70;62.20;;;;;;5063262;28;20102;-61
2023/05/19 01:27:55;;;;;;;8.52;3.88;;;12.70;62.30;;;;;;5074251;28;20024;-61
2023/05/19 01:30:29;;;;;;;7.82;4.15;;;12.60;62.40;;;;;;5072889;28;20039;-61
2023/05/19 01:33:05;;;;;;;11.07;4.43;;;12.60;62.50;;;;;;5073338;28;20024;-61
2023/05/19 01:35:33;;;;;;;8.30;3.25;;;12.60;62.60;;;;;;5071531;28;20047;-61
2023/05/19 01:38:00;;;;;;;10.10;3.90;;;12.60;62.60;;;;;;5073836;28;20032;-61
2023/05/19 01:40:27;;;;;;;8.60;3.92;;;12.60;62.70;;;;;;5063926;28;20048;-62
2023/05/19 01:42:55;;;;;;;8.93;3.63;;;12.60;62.80;;;;;;5072977;28;20028;-61
2023/05/19 01:45:22;;;;;;;7.22;3.25;;;12.60;62.90;;;;;;5071741;28;20035;-61
2023/05/19 01:47:52;;;;;;;9.57;4.07;;;12.60;63.00;;;;;;5069731;28;20079;-61
2023/05/19 01:50:18;;;;;;;9.40;3.55;;;12.60;63.00;;;;;;5056337;28;20124;-64
2023/05/19 01:52:44;;;;;;;9.38;3.85;;;12.60;63.10;;;;;;5072089;28;20096;-62
2023/05/19 01:55:10;;;;;;;13.32;4.28;;;12.60;63.20;;;;;;5068272;28;20028;-61
2023/05/19 01:57:58;;;;;;;11.68;3.90;;;12.50;63.30;;;;;;5074332;28;20033;-61
2023/05/19 02:00:48;;;;;;;9.98;4.38;;;12.50;63.40;;;;;;5073458;28;20040;-61
2023/05/19 02:03:24;;;;;;;9.48;4.00;;;12.50;63.60;;;;;;5066150;28;20036;-62
2023/05/19 02:05:58;;;;;;;9.32;4.15;;;12.50;63.50;;;;;;5075459;28;20036;-61
2023/05/19 02:08:33;;;;;;;8.85;3.95;;;12.40;63.60;;;;;;5073646;28;20023;-61
2023/05/19 02:11:21;;;;;;;12.00;4.57;;;12.40;63.70;;;;;;5070843;28;20090;-61
2023/05/19 02:13:52;;;;;;;7.53;3.70;;;12.40;63.80;;;;;;5072583;28;20078;-61
2023/05/19 02:16:20;;;;;;;10.73;4.25;;;12.30;63.80;;;;;;5081034;28;20032;-61
2023/05/19 02:18:46;;;;;;;8.93;4.20;;;12.40;64.00;;;;;;5070898;28;20025;-61
2023/05/19 02:21:12;;;;;;;8.50;4.20;;;12.30;64.00;;;;;;5054258;28;20369;-61
2023/05/19 02:23:41;;;;;;;9.73;4.05;;;12.30;64.20;;;;;;5068215;28;20106;-61
2023/05/19 02:26:07;;;;;;;9.50;4.47;;;12.20;64.30;;;;;;5074146;28;20413;-61
2023/05/19 02:28:36;;;;;;;9.90;4.25;;;12.30;64.50;;;;;;5065013;28;20039;-62
2023/05/19 02:31:04;;;;;;;9.55;4.35;;;12.20;64.50;;;;;;5061769;28;20063;-61
2023/05/19 02:33:30;;;;;;;11.63;4.95;;;12.30;64.60;;;;;;5069200;28;20085;-61
2023/05/19 02:35:56;;;;;;;12.48;4.25;;;12.20;64.60;;;;;;5070101;28;20045;-61
2023/05/19 02:38:22;;;;;;;9.48;4.22;;;12.20;64.60;;;;;;5056328;28;20036;-61
2023/05/19 02:40:51;;;;;;;9.32;4.70;;;12.20;64.80;;;;;;5060098;28;20029;-61
2023/05/19 02:43:18;;;;;;;9.57;4.90;;;12.10;64.80;;;;;;5070120;28;20157;-61
2023/05/19 02:45:44;;;;;;;14.20;5.07;;;12.10;64.90;;;;;;5060326;28;20468;-61
2023/05/19 02:48:10;;;;;;;9.05;4.70;;;12.10;65.00;;;;;;5072842;28;20047;-61
2023/05/19 02:50:35;;;;;;;10.40;4.72;;;12.10;65.10;;;;;;5072188;28;20029;-61
2023/05/19 02:53:02;;;;;;;8.55;4.43;;;12.10;65.10;;;;;;5046334;28;20025;-61
2023/05/19 02:55:28;;;;;;;9.98;4.88;;;12.10;65.20;;;;;;5066751;28;20471;-61
2023/05/19 02:57:54;;;;;;;9.30;4.90;;;12.10;65.30;;;;;;5074634;28;20024;-61
2023/05/19 03:00:20;;;;;;;11.30;4.90;;;12.00;65.40;;;;;;5062308;28;20016;-61
2023/05/19 03:02:46;;;;;;;10.75;5.65;;;12.00;65.50;;;;;;5072194;28;20035;-62
2023/05/19 03:05:13;;;;;;;11.27;5.22;;;12.00;65.60;;;;;;5067122;28;20131;-61
2023/05/19 03:07:38;;;;;;;11.07;4.68;;;12.00;65.70;;;;;;5073263;28;20028;-61
2023/05/19 03:10:08;;;;;;;10.32;4.82;;;12.00;65.80;;;;;;5072216;28;20025;-61
2023/05/19 03:12:33;;;;;;;11.63;5.05;;;12.00;65.90;;;;;;5072284;28;20025;-62
2023/05/19 03:15:00;;;;;;;10.50;4.95;;;11.90;65.90;;;;;;5070783;28;20039;-61
2023/05/19 03:17:27;;;;;;;9.20;5.03;;;11.90;66.00;;;;;;5078376;28;20355;-61
2023/05/19 03:19:53;;;;;;;10.20;5.22;;;11.90;66.10;;;;;;5066287;28;20028;-61
2023/05/19 03:22:19;;;;;;;9.07;5.18;;;11.90;66.20;;;;;;5068060;28;20024;-61
2023/05/19 03:24:45;;;;;;;10.27;4.95;;;11.90;66.30;;;;;;5070552;28;20093;-61
2023/05/19 03:27:11;;;;;;;9.30;4.70;;;11.90;67.00;;;;;;5072092;28;20041;-61
2023/05/19 03:29:37;;;;;;;10.75;4.70;;;11.90;66.40;;;;;;5071661;28;20020;-61
2023/05/19 03:32:03;;;;;;;9.90;4.68;;;11.80;66.50;;;;;;5072118;28;20497;-61
2023/05/19 03:34:28;;;;;;;12.02;5.13;;;11.80;66.60;;;;;;5071111;28;20021;-61
2023/05/19 03:36:55;;;;;;;11.27;4.80;;;11.80;66.70;;;;;;5071349;28;20024;-62
2023/05/19 03:39:21;;;;;;;10.50;5.32;;;11.80;67.40;;;;;;5069892;28;20021;-62
2023/05/19 03:41:48;;;;;;;9.80;4.75;;;11.80;66.70;;;;;;5065612;28;20083;-62
2023/05/19 03:44:14;;;;;;;9.07;5.00;;;11.80;66.80;;;;;;5069711;28;20040;-62
2023/05/19 03:46:40;;;;;;;9.45;5.10;;;11.90;66.90;;;;;;5067752;28;20025;-62
2023/05/19 03:49:26;;;;;;;11.65;5.20;;;11.80;66.80;;;;;;5068618;28;20106;-62
2023/05/19 03:52:11;;;;;;;14.48;5.60;;;11.90;66.90;;;;;;5068425;28;20400;-62
2023/05/19 03:55:18;;;;;;;11.63;4.47;;;11.80;66.90;;;;;;5051716;28;20056;-62
2023/05/19 03:57:46;;;;;;;9.02;4.40;;;11.80;66.90;;;;;;5050659;28;20413;-62
2023/05/19 04:00:12;;;;;;;10.05;5.10;;;11.80;67.00;;;;;;5063618;28;20064;-62
2023/05/19 04:02:38;;;;;;;10.82;4.93;;;11.80;67.10;;;;;;5059663;28;20332;-62
2023/05/19 04:05:04;;;;;;;11.48;5.38;;;11.80;67.20;;;;;;5059635;28;20039;-62
2023/05/19 04:07:30;;;;;;;11.45;4.97;;;11.80;67.20;;;;;;5070878;28;20119;-62
2023/05/19 04:09:56;;;;;;;11.70;4.68;;;11.80;67.20;;;;;;5069879;28;20021;-62
2023/05/19 04:12:22;;;;;;;12.07;5.25;;;11.80;67.20;;;;;;5076448;28;20090;-62
2023/05/19 04:14:48;;;;;;;11.18;5.43;;;11.80;67.20;;;;;;5066765;28;20036;-62
2023/05/19 04:17:14;;;;;;;10.30;4.93;;;11.90;67.30;;;;;;5072179;28;20686;-62
2023/05/19 04:19:40;;;;;;;9.60;4.70;;;11.90;67.30;;;;;;5069565;28;20029;-62
2023/05/19 04:22:06;;;;;;;11.35;5.38;;;11.80;67.20;;;;;;5072102;28;20133;-62
2023/05/19 04:24:32;;;;;;;12.30;5.25;;;11.80;67.20;;;;;;5072447;28;20048;-61
2023/05/19 04:27:01;;;;;;;10.65;5.75;;;11.90;67.30;;;;;;5073522;28;20051;-61
2023/05/19 04:29:31;;;;;;;10.10;5.18;;;11.90;67.20;;;;;;5072358;28;20050;-62
2023/05/19 04:31:57;;;;;;;9.75;5.07;;;11.90;67.20;;;;;;5070003;28;20025;-62
2023/05/19 04:34:23;;;;;;;10.23;5.85;;;11.90;67.20;;;;;;5072383;28;20031;-62
2023/05/19 04:36:48;;;;;;;8.98;4.55;;;11.90;67.10;;;;;;5058329;28;20040;-62
2023/05/19 04:39:15;;;;;;;12.48;5.43;;;11.90;67.10;;;;;;5065602;28;20017;-62
2023/05/19 04:41:43;;;;;;;9.10;4.65;;;12.00;67.10;;;;;;5062792;28;20039;-62
2023/05/19 04:44:09;;;;;;;9.93;5.43;;;12.00;67.10;;;;;;5068065;28;20029;-62
2023/05/19 04:46:36;;;;;;;12.15;5.80;;;12.00;67.00;;;;;;5065125;28;20035;-62
2023/05/19 04:49:03;;;;;;;10.80;5.22;;;12.00;67.00;;;;;;5064580;28;20024;-62
2023/05/19 04:51:30;;;;;;;9.98;5.07;;;12.00;66.90;;;;;;5068553;28;20020;-61
2023/05/19 04:53:57;;;;;;;13.48;5.28;;;12.10;67.00;;;;;;5058004;28;20082;-62
2023/05/19 04:56:23;;;;;;;13.13;5.35;;;12.10;67.00;;;;;;5072132;28;20017;-62
2023/05/19 04:58:49;;;;;;;9.98;4.78;;;12.10;66.90;;;;;;5073342;28;20380;-62
2023/05/19 05:01:15;;;;;;;8.75;4.70;;;12.20;66.80;;;;;;5071405;28;20403;-62
2023/05/19 05:03:42;;;;;;;12.52;5.00;;;12.20;66.60;;;;;;5070704;28;20104;-62
2023/05/19 05:06:10;;;;;;;8.05;4.70;;;12.20;66.50;;;;;;5073670;28;20487;-62
2023/05/19 05:08:38;;;;;;;13.05;5.18;;;12.30;66.30;;;;;;5069605;28;20021;-62
2023/05/19 05:11:05;;;;;;;10.00;4.43;;;12.30;66.10;;;;;;5068796;28;20029;-62
2023/05/19 05:13:31;;;;;;;8.90;4.90;;;12.40;66.10;;;;;;5063100;28;20084;-62
2023/05/19 05:15:58;;;;;;;9.00;4.30;;;12.50;65.80;;;;;;5070426;28;20058;-63
2023/05/19 05:18:25;;;;;;;10.10;4.63;;;12.60;65.40;;;;;;5062723;28;20163;-63
2023/05/19 05:20:52;;;;;;;12.38;4.90;;;12.90;64.80;;;;;;5082414;28;20114;-62
2023/05/19 05:23:19;;;;;;;10.75;5.30;;;13.20;64.20;;;;;;5066042;28;20432;-63
2023/05/19 05:25:47;;;;;;;11.07;4.95;;;13.20;63.60;;;;;;5074272;28;20028;-62
2023/05/19 05:28:14;;;;;;;10.50;4.15;;;13.20;63.70;;;;;;5060835;28;20453;-62
2023/05/19 05:30:40;;;;;;;10.00;4.57;;;13.20;63.80;;;;;;5068418;28;20024;-62
2023/05/19 05:33:07;;;;;;;11.50;4.47;;;13.10;63.90;;;;;;5070680;28;20047;-62
2023/05/19 05:35:36;;;;;;;11.10;4.35;;;13.20;63.80;;;;;;5073405;28;20028;-62
2023/05/19 05:38:03;;;;;;;11.25;4.28;;;13.30;63.80;;;;;;5062945;28;20028;-62
2023/05/19 05:40:30;;;;;;;9.07;3.95;;;13.40;63.50;;;;;;5075267;28;20454;-62
2023/05/19 05:42:57;;;;;;;8.93;4.15;;;13.50;63.10;;;;;;5072322;28;20484;-62
2023/05/19 05:45:25;;;;;;;8.85;3.85;;;13.60;63.00;;;;;;5074876;28;20036;-62
2023/05/19 05:47:52;;;;;;;8.07;4.15;;;13.70;62.80;;;;;;5074802;28;20028;-62
2023/05/19 05:50:18;;;;;;;9.73;4.53;;;13.80;62.60;;;;;;5074104;28;20021;-62
2023/05/19 05:52:46;;;;;;;9.73;3.90;;;14.00;62.50;;;;;;5069901;28;20025;-62
2023/05/19 05:55:13;;;;;;;9.48;4.32;;;14.10;62.30;;;;;;5074745;28;20036;-62
2023/05/19 05:57:42;;;;;;;6.95;3.38;;;14.20;62.00;;;;;;5074530;28;20028;-62
2023/05/19 06:00:14;;;;;;;9.23;3.70;;;14.30;61.70;;;;;;5074664;28;20021;-62
2023/05/19 06:02:48;;;;;;;9.98;4.10;;;14.40;61.20;;;;;;5068632;28;20056;-62
2023/05/19 06:05:15;;;;;;;7.65;3.88;;;14.60;60.90;;;;;;5056829;28;20033;-62
2023/05/19 06:07:42;;;;;;;9.65;3.85;;;14.70;60.60;;;;;;5068935;28;20025;-62
2023/05/19 06:10:10;;;;;;;8.85;3.85;;;14.70;60.10;;;;;;5060420;28;20016;-62
2023/05/19 06:12:39;;;;;;;9.63;3.60;;;14.80;60.50;;;;;;5073146;28;20165;-62
2023/05/19 06:15:06;;;;;;;7.40;3.25;;;14.90;59.60;;;;;;5056575;28;20044;-62
2023/05/19 06:17:49;;;;;;;10.95;4.03;;;14.90;59.20;;;;;;5069957;28;20109;-63
2023/05/19 06:20:15;;;;;;;8.93;3.58;;;15.10;58.90;;;;;;5066829;28;20331;-62
2023/05/19 06:22:40;;;;;;;9.00;3.40;;;15.30;58.50;;;;;;5070878;28;21694;-62
2023/05/19 06:25:08;;;;;;;10.30;3.50;;;15.40;58.00;;;;;;5065706;28;20059;-62
2023/05/19 06:27:34;;;;;;;9.43;3.35;;;15.50;57.60;;;;;;5065794;28;20040;-62
2023/05/19 06:30:01;;;;;;;9.70;3.55;;;15.70;57.40;;;;;;5073145;28;20099;-63
2023/05/19 06:32:31;;;;;;;7.70;3.30;;;15.90;56.90;;;;;;5070220;28;20025;-63
2023/05/19 06:34:57;;;;;;;9.70;3.47;;;16.10;56.50;;;;;;5072051;28;20134;-62
2023/05/19 06:37:24;;;;;;;11.10;3.17;;;16.20;56.00;;;;;;5053882;28;20024;-63
2023/05/19 06:39:52;;;;;;;6.05;2.85;;;16.20;55.80;;;;;;5059860;28;20024;-63
2023/05/19 06:42:21;;;;;;;9.90;2.90;;;16.30;55.50;;;;;;5068088;28;20024;-63
2023/05/19 06:44:57;;;;;;;9.38;3.38;;;16.30;55.20;;;;;;5059150;28;20056;-63
2023/05/19 06:47:23;;;;;;;9.27;3.00;;;16.30;55.10;;;;;;5040881;28;20032;-64
2023/05/19 06:49:49;;;;;;;7.78;2.60;;;16.30;54.80;;;;;;5055002;28;20025;-64
2023/05/19 06:52:16;;;;;;;8.00;2.83;;;16.30;54.50;;;;;;5068870;28;20021;-63
2023/05/19 06:54:42;;;;;;;11.15;3.17;;;16.40;54.20;;;;;;5064340;28;20023;-64
2023/05/19 06:57:09;;;;;;;7.20;2.70;;;16.40;54.20;;;;;;5068266;28;20154;-64
2023/05/19 06:59:36;;;;;;;7.25;2.53;;;16.50;54.00;;;;;;5069856;28;20043;-65
2023/05/19 07:02:03;;;;;;;8.63;2.85;;;16.70;53.90;;;;;;5054735;28;20350;-65
2023/05/19 07:04:29;;;;;;;7.97;2.90;;;16.90;53.50;;;;;;5067198;28;20039;-65
2023/05/19 07:06:55;;;;;;;8.98;2.80;;;17.20;53.20;;;;;;5055623;28;20021;-64
2023/05/19 07:09:21;;;;;;;8.82;2.72;;;17.40;52.60;;;;;;5072851;28;20077;-64
2023/05/19 07:11:46;;;;;;;6.68;2.47;;;17.70;52.70;;;;;;5055685;28;20108;-64
2023/05/19 07:14:12;;;;;;;6.15;2.50;;;17.90;51.80;;;;;;5055144;28;20021;-64
2023/05/19 07:16:38;;;;;;;6.88;2.33;;;18.10;51.40;;;;;;5066423;28;20475;-64
2023/05/19 07:19:04;;;;;;;6.10;2.45;;;18.20;51.00;;;;;;5072005;28;20032;-64
2023/05/19 07:21:31;;;;;;;6.65;2.60;;;18.30;50.80;;;;;;5071285;28;20111;-63
2023/05/19 07:23:57;;;;;;;8.32;2.75;;;18.30;50.70;;;;;;5056386;28;20473;-63
2023/05/19 07:26:22;;;;;;;7.95;3.03;;;18.30;50.60;;;;;;5070208;28;20036;-64
2023/05/19 07:28:48;;;;;;;7.93;3.10;;;18.10;50.70;;;;;;5069898;28;20232;-64
2023/05/19 07:31:14;;;;;;;7.72;2.80;;;17.80;51.00;;;;;;5064260;28;20032;-63
2023/05/19 07:33:40;;;;;;;6.40;2.47;;;17.80;51.30;;;;;;5064402;28;20032;-65
2023/05/19 07:36:05;;;;;;;6.97;2.90;;;17.80;51.30;;;;;;5060564;28;20416;-64
2023/05/19 07:38:33;;;;;;;7.55;2.90;;;17.90;51.30;;;;;;5046901;28;20029;-64
2023/05/19 07:41:00;;;;;;;6.88;2.72;;;18.00;51.10;;;;;;5071847;28;20042;-64
2023/05/19 07:43:26;;;;;;;6.05;2.67;;;18.30;50.70;;;;;;5071742;28;20108;-64
2023/05/19 07:45:52;;;;;;;7.15;2.60;;;18.60;50.20;;;;;;5067541;28;20132;-63
2023/05/19 07:48:21;;;;;;;8.57;2.88;;;18.80;49.80;;;;;;5073026;28;20028;-64
2023/05/19 07:50:47;;;;;;;7.85;2.85;;;19.10;49.60;;;;;;5070865;28;20032;-65
2023/05/19 07:53:14;;;;;;;7.82;2.38;;;19.40;49.20;;;;;;5072735;28;20472;-63
2023/05/19 07:55:40;;;;;;;8.68;2.75;;;19.60;48.90;;;;;;5050456;28;20029;-64
2023/05/19 07:58:06;;;;;;;6.20;2.25;;;19.80;48.50;;;;;;5070560;28;20332;-64
2023/05/19 08:00:31;;;;;;;5.75;2.60;;;20.00;48.00;;;;;;5071544;28;20028;-63
2023/05/19 08:02:57;;;;;;;6.10;2.17;;;20.10;47.80;;;;;;5069044;28;20131;-64
2023/05/19 08:05:24;;;;;;;5.30;2.03;;;20.20;47.50;;;;;;5066688;28;20036;-63
2023/05/19 08:07:50;;;;;;;7.57;2.20;;;20.40;47.10;;;;;;5068822;28;20033;-62
2023/05/19 08:10:16;;;;;;;9.32;2.40;;;20.50;46.80;;;;;;5072420;28;20032;-62
2023/05/19 08:12:43;;;;;;;6.68;2.30;;;20.50;46.40;;;;;;5072744;28;20365;-64
2023/05/19 08:15:11;;;;;;;5.28;2.03;;;20.60;46.30;;;;;;5072239;28;20044;-63
2023/05/19 08:17:37;;;;;;;6.13;2.25;;;20.70;46.20;;;;;;5071206;28;20043;-64
2023/05/19 08:20:07;;;;;;;6.50;2.20;;;20.80;45.90;;;;;;5059473;28;20405;-64
2023/05/19 08:22:33;;;;;;;7.45;2.10;;;21.00;45.60;;;;;;5069763;28;20029;-63
2023/05/19 08:24:58;;;;;;;7.03;2.03;;;21.20;45.30;;;;;;5067125;28;20045;-64
2023/05/19 08:27:24;;;;;;;7.25;2.20;;;21.30;45.20;;;;;;5063503;28;20029;-63
2023/05/19 08:29:50;;;;;;;9.85;2.00;;;21.40;45.00;;;;;;5061636;28;20382;-63
2023/05/19 08:32:16;;;;;;;7.50;2.20;;;21.50;44.70;;;;;;5062275;28;20079;-63
2023/05/19 08:34:42;;;;;;;7.22;2.00;;;21.60;44.60;;;;;;5071468;28;20029;-63
2023/05/19 08:37:07;;;;;;;7.43;1.98;;;21.70;44.50;;;;;;5055165;28;20024;-63
2023/05/19 08:39:33;;;;;;;6.75;1.90;;;21.80;44.10;;;;;;5073202;28;20043;-63
2023/05/19 08:42:01;;;;;;;6.32;2.20;;;21.90;43.80;;;;;;5058962;28;20090;-63
2023/05/19 08:44:27;;;;;;;6.25;2.00;;;22.00;43.50;;;;;;5067015;28;20062;-64
2023/05/19 08:47:02;;;;;;;6.22;1.98;;;22.00;43.20;;;;;;5064481;28;20029;-63
2023/05/19 08:49:32;;;;;;;6.38;1.98;;;22.10;42.80;;;;;;5070825;28;20029;-64
2023/05/19 08:52:22;;;;;;;7.10;1.73;;;22.10;42.60;;;;;;5072199;28;20154;-63
2023/05/19 08:55:20;;;;;;;4.78;2.00;;;22.30;42.10;;;;;;5070509;28;20378;-63
2023/05/19 08:57:48;;;;;;;5.85;2.17;;;22.30;42.00;;;;;;5075387;28;20339;-64
2023/05/19 09:00:15;;;;;;;8.25;2.47;;;22.30;41.90;;;;;;5071245;28;20028;-63
2023/05/19 09:02:42;;;;;;;4.72;1.42;;;22.30;41.90;;;;;;5072593;28;20112;-64
2023/05/19 09:05:09;;;;;;;7.97;1.60;;;22.30;41.90;;;;;;5062737;28;20108;-64
2023/05/19 09:07:36;;;;;;;5.35;1.70;;;22.40;41.80;;;;;;5059110;28;20048;-64
2023/05/19 09:10:02;;;;;;;7.75;2.03;;;22.50;41.60;;;;;;5060481;28;20406;-64
2023/05/19 09:12:28;;;;;;;6.32;1.58;;;22.70;41.20;;;;;;5065790;28;20017;-64
2023/05/19 09:14:55;;;;;;;4.70;1.52;;;22.80;40.70;;;;;;5064734;28;20048;-64
2023/05/19 09:17:22;;;;;;;4.60;1.42;;;23.00;40.30;;;;;;5064819;28;20040;-64
2023/05/19 09:19:48;;;;;;;5.00;1.52;;;23.00;39.70;;;;;;5062845;28;20087;-64
2023/05/19 09:22:15;;;;;;;7.50;1.42;;;23.00;39.30;;;;;;5068599;28;20016;-64
2023/05/19 09:24:41;;;;;;;3.75;1.30;;;23.10;39.30;;;;;;5067969;28;20032;-65
2023/05/19 09:27:07;;;;;;;5.82;1.65;;;23.20;39.20;;;;;;5065609;28;20037;-64
2023/05/19 09:29:33;;;;;;;5.13;1.73;;;23.20;38.80;;;;;;5068129;28;20040;-64
2023/05/19 09:32:00;;;;;;;5.68;1.70;;;23.20;38.60;;;;;;5064808;28;20389;-64
2023/05/19 09:34:26;;;;;;;6.78;1.42;;;23.30;38.60;;;;;;5052316;28;20077;-64
2023/05/19 09:36:52;;;;;;;7.40;2.22;;;23.40;38.20;;;;;;5068842;28;20040;-64
2023/05/19 09:39:22;;;;;;;6.10;2.08;;;23.40;38.00;;;;;;5068483;28;20032;-65
2023/05/19 09:41:53;;;;;;;6.38;1.75;;;23.50;37.80;;;;;;5065779;28;20033;-65
2023/05/19 09:44:29;;;;;;;5.10;1.65;;;23.50;37.50;;;;;;5068226;28;20064;-64
2023/05/19 09:46:55;;;;;;;4.22;1.70;;;23.50;37.20;;;;;;5068229;28;20032;-64
2023/05/19 09:49:30;;;;;;;7.05;1.80;;;23.50;37.50;;;;;;5067378;28;20036;-64
2023/05/19 09:51:56;;;;;;;7.32;2.10;;;23.50;37.60;;;;;;5064485;28;20433;-64
2023/05/19 09:54:23;;;;;;;6.93;2.40;;;23.40;37.50;;;;;;5067949;28;20115;-63
2023/05/19 09:57:00;;;;;;;6.75;1.88;;;23.30;37.60;;;;;;5066281;28;20078;-64
2023/05/19 09:59:27;;;;;;;6.75;1.60;;;23.30;37.30;;;;;;5064574;28;20101;-63
2023/05/19 10:01:57;;;;;;;5.78;1.60;;;23.40;37.40;;;;;;5067304;28;20028;-63
2023/05/19 10:04:26;;;;;;;5.00;1.45;;;23.50;37.30;;;;;;5064977;28;20040;-64
2023/05/19 10:06:53;;;;;;;6.53;1.80;;;23.60;37.30;;;;;;5067805;28;20107;-64
2023/05/19 10:09:24;;;;;;;6.32;1.80;;;23.60;37.30;;;;;;5066964;28;20041;-63
2023/05/19 10:11:55;;;;;;;9.40;1.73;;;23.70;37.40;;;;;;5067775;28;20441;-64
2023/05/19 10:14:25;;;;;;;4.90;1.65;;;23.70;37.50;;;;;;5066345;28;20017;-65
2023/05/19 10:16:52;;;;;;;4.57;1.80;;;23.70;37.10;;;;;;5066711;28;20115;-64
2023/05/19 10:19:25;;;;;;;4.88;1.55;;;23.70;37.10;;;;;;5063084;28;20119;-63
2023/05/19 10:21:52;;;;;;;5.95;1.77;;;23.70;37.10;;;;;;5063849;28;20107;-64
2023/05/19 10:24:18;;;;;;;4.93;1.80;;;23.70;37.00;;;;;;5050977;28;20049;-64
2023/05/19 10:26:58;;;;;;;5.75;1.90;;;23.70;37.10;;;;;;5049270;28;20036;-63
2023/05/19 10:29:37;;;;;;;8.00;2.70;;;23.80;37.00;;;;;;5065708;28;20025;-62
2023/05/19 10:32:21;;;;;;;5.63;2.00;;;23.80;36.70;;;;;;5065329;28;20029;-63
2023/05/19 10:35:16;;;;;;;6.43;2.00;;;23.70;36.70;;;;;;5065484;28;20115;-63
2023/05/19 10:38:09;;;;;;;5.97;1.80;;;23.60;36.80;;;;;;5056341;28;20017;-63
2023/05/19 10:40:50;;;;;;;5.97;1.83;;;23.40;36.90;;;;;;5065561;28;21606;-63
2023/05/19 10:43:40;;;;;;;5.80;1.50;;;23.30;37.00;;;;;;5057181;28;20020;-62
2023/05/19 10:46:06;;;;;;;5.82;1.80;;;23.20;36.90;;;;;;5065990;28;20054;-63
2023/05/19 10:48:34;;;;;;;5.47;1.65;;;23.00;37.20;;;;;;5065072;28;20016;-63
2023/05/19 10:51:01;;;;;;;5.57;1.90;;;22.90;37.10;;;;;;5060464;28;20053;-64
2023/05/19 10:53:31;;;;;;;4.80;1.58;;;22.80;37.00;;;;;;5066375;28;20061;-63
2023/05/19 10:56:01;;;;;;;7.28;1.77;;;22.70;37.10;;;;;;5063167;28;20349;-63
2023/05/19 10:58:42;;;;;;;5.75;1.90;;;22.70;37.30;;;;;;5066146;28;20107;-63
2023/05/19 11:01:23;;;;;;;4.85;1.70;;;22.70;37.10;;;;;;5064222;28;20333;-63
2023/05/19 11:03:53;;;;;;;6.82;2.20;;;22.80;37.20;;;;;;5063816;28;20097;-63
2023/05/19 11:06:27;;;;;;;5.28;2.00;;;22.90;37.20;;;;;;5062223;28;20032;-63
2023/05/19 11:08:59;;;;;;;6.43;1.85;;;23.10;37.20;;;;;;5062952;28;20115;-64
2023/05/19 11:11:27;;;;;;;6.00;1.90;;;23.10;37.20;;;;;;5061619;28;20032;-63
2023/05/19 11:13:53;;;;;;;5.50;2.00;;;23.10;37.20;;;;;;5072906;28;20055;-64
2023/05/19 11:16:31;;;;;;;6.35;1.70;;;23.20;37.20;;;;;;5071498;28;20357;-63
2023/05/19 11:19:00;;;;;;;5.03;1.73;;;23.30;37.10;;;;;;5062531;28;20392;-64
2023/05/19 11:21:54;;;;;;;4.60;1.77;;;23.30;36.90;;;;;;5071300;28;20021;-64
2023/05/19 11:24:48;;;;;;;5.20;1.60;;;23.50;36.70;;;;;;5054145;28;20061;-63
2023/05/19 11:27:29;;;;;;;4.80;1.63;;;23.60;36.50;;;;;;5053960;28;20041;-63
2023/05/19 11:30:00;;;;;;;6.18;2.05;;;23.80;36.40;;;;;;5054931;28;20422;-63
2023/05/19 11:32:29;;;;;;;7.22;2.55;;;23.90;36.40;;;;;;5053599;28;20104;-63
2023/05/19 11:34:55;;;;;;;5.32;1.92;;;23.90;36.20;;;;;;5055172;28;20029;-64
2023/05/19 11:37:22;;;;;;;5.82;1.90;;;24.00;36.00;;;;;;5056144;28;20067;-63
2023/05/19 11:39:48;;;;;;;7.90;2.15;;;24.00;35.90;;;;;;5074272;28;20036;-64
2023/05/19 11:42:14;;;;;;;4.55;1.73;;;24.00;35.50;;;;;;5074274;28;20032;-64
2023/05/19 11:44:40;;;;;;;5.47;1.75;;;23.90;35.60;;;;;;5073949;28;20028;-63
2023/05/19 11:47:07;;;;;;;4.60;1.77;;;23.90;35.80;;;;;;5072751;28;20028;-63
2023/05/19 11:49:33;;;;;;;5.85;1.55;;;23.90;35.80;;;;;;5073143;28;20020;-63
2023/05/19 11:52:01;;;;;;;7.30;2.30;;;23.90;35.70;;;;;;5074472;28;20037;-63
2023/05/19 11:54:30;;;;;;;6.07;2.17;;;23.90;35.90;;;;;;5074075;28;20296;-63
2023/05/19 11:56:56;;;;;;;4.70;1.70;;;23.90;35.90;;;;;;5072888;28;20036;-64
2023/05/19 11:59:33;;;;;;;6.10;1.83;;;23.90;35.90;;;;;;5073247;28;20036;-64
2023/05/19 12:02:17;;;;;;;6.70;2.13;;;23.80;35.80;;;;;;5073920;28;20035;-63
2023/05/19 12:04:43;;;;;;;6.43;1.80;;;23.70;35.70;;;;;;5073085;28;20025;-64
2023/05/19 12:07:16;;;;;;;7.10;2.15;;;23.70;35.80;;;;;;5074051;28;20421;-63
2023/05/19 12:09:46;;;;;;;7.38;1.90;;;23.60;35.80;;;;;;5073620;28;20040;-63
2023/05/19 12:12:21;;;;;;;6.90;2.20;;;23.60;35.90;;;;;;5071859;28;20036;-63
2023/05/19 12:14:51;;;;;;;5.18;1.90;;;23.50;36.10;;;;;;5073114;28;20354;-65
2023/05/19 12:17:22;;;;;;;6.18;2.03;;;23.40;36.10;;;;;;5073771;28;20040;-64
2023/05/19 12:19:49;;;;;;;4.60;1.83;;;23.40;36.20;;;;;;5073756;28;20047;-64
2023/05/19 12:22:16;;;;;;;5.25;1.75;;;23.30;36.40;;;;;;5072756;28;20111;-64
2023/05/19 12:24:42;;;;;;;5.13;1.70;;;23.20;36.40;;;;;;5071530;28;20471;-63
2023/05/19 12:27:18;;;;;;;8.48;1.92;;;23.20;36.30;;;;;;5074406;28;20044;-62
2023/05/19 12:29:56;;;;;;;5.50;2.42;;;23.10;36.30;;;;;;5072976;28;20508;-62
2023/05/19 12:32:27;;;;;;;4.32;1.85;;;23.00;36.40;;;;;;5071321;28;20028;-62
2023/05/19 12:34:55;;;;;;;6.55;2.10;;;22.90;36.50;;;;;;5067887;28;20025;-62
2023/05/19 12:37:24;;;;;;;4.80;1.73;;;22.80;36.50;;;;;;5061245;28;20516;-62
2023/05/19 12:39:50;;;;;;;8.00;1.65;;;22.70;36.60;;;;;;5066063;28;20441;-62
2023/05/19 12:42:16;;;;;;;9.23;1.98;;;22.60;36.60;;;;;;5067298;28;20083;-62
2023/05/19 12:44:52;;;;;;;6.82;2.08;;;22.50;36.80;;;;;;5067607;28;20021;-63
2023/05/19 12:47:19;;;;;;;5.03;1.85;;;22.40;37.10;;;;;;5064242;28;20131;-63
2023/05/19 12:50:05;;;;;;;5.85;2.03;;;22.40;37.20;;;;;;5059349;28;20037;-63
2023/05/19 12:52:34;;;;;;;6.43;2.28;;;22.40;37.00;;;;;;5060483;28;20036;-64
2023/05/19 12:55:05;;;;;;;6.82;2.00;;;22.40;37.00;;;;;;5064089;28;20060;-63
2023/05/19 12:57:38;;;;;;;5.72;1.95;;;22.40;37.00;;;;;;5072682;28;20083;-63